sensor_id;sensor_type;location;lat;lon;timestamp;temperature;humidity
8408;DHT22;4241;48.452;9.216;2022-12-26T00:01:45;11.00;99.90
8408;DHT22;4241;48.452;9.216;2022-12-26T00:04:13;11.00;99.90
8408;DHT22;4241;48.452;9.216;2022-12-26T00:06:40;11.10;99.90
8408;DHT22;4241;48.452;9.216;2022-12-26T00:09:07;11.10;99.90
8408;DHT22;4241;48.452;9.216;2022-12-26T00:14:02;11.00;99.90
8408;DHT22;4241;48.452;9.216;2022-12-26T00:16:30;10.90;99.90
8408;DHT22;4241;48.452;9.216;2022-12-26T00:18:58;11.00;99.90
8408;DHT22;4241;48.452;9.216;2022-12-26T00:21:25;10.90;99.90
8408;DHT22;4241;48.452;9.216;2022-12-26T00:23:54;10.90;99.90
8408;DHT22;4241;48.452;9.216;2022-12-26T00:26:22;10.90;99.90
8408;DHT22;4241;48.452;9.216;2022-12-26T00:28:51;10.90;99.90
8408;DHT22;4241;48.452;9.216;2022-12-26T00:31:20;10.90;99.90
8408;DHT22;4241;48.452;9.216;2022-12-26T00:33:47;10.80;99.90
8408;DHT22;4241;48.452;9.216;2022-12-26T00:36:18;10.80;99.90
8408;DHT22;4241;48.452;9.216;2022-12-26T00:38:46;10.90;99.90
8408;DHT22;4241;48.452;9.216;2022-12-26T00:41:15;10.80;99.90
8408;DHT22;4241;48.452;9.216;2022-12-26T00:48:36;10.90;99.90
8408;DHT22;4241;48.452;9.216;2022-12-26T00:53:33;11.00;99.90
8408;DHT22;4241;48.452;9.216;2022-12-26T00:56:00;10.80;99.90
8408;DHT22;4241;48.452;9.216;2022-12-26T00:58:27;10.80;99.90
8408;DHT22;4241;48.452;9.216;2022-12-26T01:00:54;10.70;99.90
8408;DHT22;4241;48.452;9.216;2022-12-26T01:03:21;10.80;99.90
8408;DHT22;4241;48.452;9.216;2022-12-26T01:05:49;10.80;99.90
8408;DHT22;4241;48.452;9.216;2022-12-26T01:08:17;10.70;99.90
8408;DHT22;4241;48.452;9.216;2022-12-26T01:10:46;10.50;99.90
8408;DHT22;4241;48.452;9.216;2022-12-26T01:13:13;10.70;99.90
8408;DHT22;4241;48.452;9.216;2022-12-26T01:15:46;10.70;99.90
8408;DHT22;4241;48.452;9.216;2022-12-26T01:18:14;10.60;99.90
8408;DHT22;4241;48.452;9.216;2022-12-26T01:20:40;10.80;99.90
8408;DHT22;4241;48.452;9.216;2022-12-26T01:23:07;10.70;99.90
8408;DHT22;4241;48.452;9.216;2022-12-26T01:25:34;10.70;99.90
8408;DHT22;4241;48.452;9.216;2022-12-26T01:28:02;10.80;99.90
8408;DHT22;4241;48.452;9.216;2022-12-26T01:35:24;10.80;99.90
8408;DHT22;4241;48.452;9.216;2022-12-26T01:37:50;10.80;99.90
8408;DHT22;4241;48.452;9.216;2022-12-26T01:40:17;10.90;99.90
8408;DHT22;4241;48.452;9.216;2022-12-26T01:45:25;10.80;99.90
8408;DHT22;4241;48.452;9.216;2022-12-26T01:47:58;10.90;99.90
8408;DHT22;4241;48.452;9.216;2022-12-26T01:50:34;10.70;99.90
8408;DHT22;4241;48.452;9.216;2022-12-26T01:53:04;10.60;99.90
8408;DHT22;4241;48.452;9.216;2022-12-26T01:55:36;10.70;99.90
8408;DHT22;4241;48.452;9.216;2022-12-26T01:58:07;10.60;99.90
8408;DHT22;4241;48.452;9.216;2022-12-26T02:00:37;10.60;99.90
8408;DHT22;4241;48.452;9.216;2022-12-26T02:03:06;10.60;99.90
8408;DHT22;4241;48.452;9.216;2022-12-26T02:05:52;10.60;99.90
8408;DHT22;4241;48.452;9.216;2022-12-26T02:08:21;10.50;99.90
8408;DHT22;4241;48.452;9.216;2022-12-26T02:10:54;10.50;99.90
8408;DHT22;4241;48.452;9.216;2022-12-26T02:13:23;10.50;99.90
8408;DHT22;4241;48.452;9.216;2022-12-26T02:15:52;10.50;99.90
8408;DHT22;4241;48.452;9.216;2022-12-26T02:20:57;10.60;99.90
8408;DHT22;4241;48.452;9.216;2022-12-26T02:23:52;10.60;99.90
8408;DHT22;4241;48.452;9.216;2022-12-26T02:26:57;10.70;99.90
8408;DHT22;4241;48.452;9.216;2022-12-26T02:30:05;10.70;99.90
8408;DHT22;4241;48.452;9.216;2022-12-26T02:33:14;10.70;99.90
8408;DHT22;4241;48.452;9.216;2022-12-26T02:35:58;10.70;99.90
8408;DHT22;4241;48.452;9.216;2022-12-26T02:38:34;10.60;99.90
8408;DHT22;4241;48.452;9.216;2022-12-26T02:41:16;10.70;99.90
8408;DHT22;4241;48.452;9.216;2022-12-26T02:43:57;10.70;99.90
8408;DHT22;4241;48.452;9.216;2022-12-26T02:46:31;10.70;99.90
8408;DHT22;4241;48.452;9.216;2022-12-26T02:49:23;10.70;99.90
8408;DHT22;4241;48.452;9.216;2022-12-26T02:51:59;10.70;99.90
8408;DHT22;4241;48.452;9.216;2022-12-26T02:54:50;10.80;99.90
8408;DHT22;4241;48.452;9.216;2022-12-26T02:57:41;10.80;99.90
8408;DHT22;4241;48.452;9.216;2022-12-26T03:00:29;10.90;99.90
8408;DHT22;4241;48.452;9.216;2022-12-26T03:03:19;11.00;99.90
8408;DHT22;4241;48.452;9.216;2022-12-26T03:06:08;11.00;99.90
8408;DHT22;4241;48.452;9.216;2022-12-26T03:08:59;11.10;99.90
8408;DHT22;4241;48.452;9.216;2022-12-26T03:11:46;11.20;99.90
8408;DHT22;4241;48.452;9.216;2022-12-26T03:14:35;11.20;99.90
8408;DHT22;4241;48.452;9.216;2022-12-26T03:17:06;11.20;99.90
8408;DHT22;4241;48.452;9.216;2022-12-26T03:19:48;11.30;99.90
8408;DHT22;4241;48.452;9.216;2022-12-26T03:22:30;11.30;99.90
8408;DHT22;4241;48.452;9.216;2022-12-26T03:25:00;11.30;99.90
8408;DHT22;4241;48.452;9.216;2022-12-26T03:27:45;11.20;99.90
8408;DHT22;4241;48.452;9.216;2022-12-26T03:30:12;11.30;99.90
8408;DHT22;4241;48.452;9.216;2022-12-26T03:33:08;11.30;99.90
8408;DHT22;4241;48.452;9.216;2022-12-26T03:35:58;11.30;99.90
8408;DHT22;4241;48.452;9.216;2022-12-26T03:38:32;11.50;99.90
8408;DHT22;4241;48.452;9.216;2022-12-26T03:41:06;11.50;99.90
8408;DHT22;4241;48.452;9.216;2022-12-26T03:44:16;11.50;99.90
8408;DHT22;4241;48.452;9.216;2022-12-26T03:47:12;11.50;99.90
8408;DHT22;4241;48.452;9.216;2022-12-26T03:50:04;11.60;99.90
8408;DHT22;4241;48.452;9.216;2022-12-26T03:52:54;11.60;99.90
8408;DHT22;4241;48.452;9.216;2022-12-26T03:55:45;11.50;99.90
8408;DHT22;4241;48.452;9.216;2022-12-26T03:58:39;11.80;99.90
8408;DHT22;4241;48.452;9.216;2022-12-26T04:01:26;11.70;99.90
8408;DHT22;4241;48.452;9.216;2022-12-26T04:04:13;11.60;99.90
8408;DHT22;4241;48.452;9.216;2022-12-26T04:07:02;11.60;99.90
8408;DHT22;4241;48.452;9.216;2022-12-26T04:09:53;11.60;99.90
8408;DHT22;4241;48.452;9.216;2022-12-26T04:12:41;11.60;99.90
8408;DHT22;4241;48.452;9.216;2022-12-26T04:15:31;11.70;99.90
8408;DHT22;4241;48.452;9.216;2022-12-26T04:18:19;11.50;99.90
8408;DHT22;4241;48.452;9.216;2022-12-26T04:21:13;11.50;99.90
8408;DHT22;4241;48.452;9.216;2022-12-26T04:23:56;11.50;99.90
8408;DHT22;4241;48.452;9.216;2022-12-26T04:26:44;11.30;99.90
8408;DHT22;4241;48.452;9.216;2022-12-26T04:29:31;11.40;99.90
8408;DHT22;4241;48.452;9.216;2022-12-26T04:32:21;11.30;99.90
8408;DHT22;4241;48.452;9.216;2022-12-26T04:35:12;11.30;99.90
8408;DHT22;4241;48.452;9.216;2022-12-26T04:37:58;11.30;99.90
8408;DHT22;4241;48.452;9.216;2022-12-26T04:40:47;11.20;99.90
8408;DHT22;4241;48.452;9.216;2022-12-26T04:43:33;11.10;99.90
8408;DHT22;4241;48.452;9.216;2022-12-26T04:46:21;11.10;99.90
8408;DHT22;4241;48.452;9.216;2022-12-26T04:48:50;11.10;99.90
8408;DHT22;4241;48.452;9.216;2022-12-26T04:51:35;11.00;99.90
8408;DHT22;4241;48.452;9.216;2022-12-26T04:54:03;11.00;99.90
8408;DHT22;4241;48.452;9.216;2022-12-26T04:58:57;11.20;99.90
8408;DHT22;4241;48.452;9.216;2022-12-26T05:01:25;11.20;99.90
8408;DHT22;4241;48.452;9.216;2022-12-26T05:04:12;11.00;99.90
8408;DHT22;4241;48.452;9.216;2022-12-26T05:12:08;10.70;99.90
8408;DHT22;4241;48.452;9.216;2022-12-26T05:14:35;11.00;99.90
8408;DHT22;4241;48.452;9.216;2022-12-26T05:17:04;11.20;99.90
8408;DHT22;4241;48.452;9.216;2022-12-26T05:22:36;11.20;99.90
8408;DHT22;4241;48.452;9.216;2022-12-26T05:25:24;11.20;99.90
8408;DHT22;4241;48.452;9.216;2022-12-26T05:28:09;11.30;99.90
8408;DHT22;4241;48.452;9.216;2022-12-26T05:31:10;11.30;99.90
8408;DHT22;4241;48.452;9.216;2022-12-26T05:33:39;11.30;99.90
8408;DHT22;4241;48.452;9.216;2022-12-26T05:36:24;11.20;99.90
8408;DHT22;4241;48.452;9.216;2022-12-26T05:38:53;11.20;99.90
8408;DHT22;4241;48.452;9.216;2022-12-26T05:41:20;11.30;99.90
8408;DHT22;4241;48.452;9.216;2022-12-26T05:46:14;11.20;99.90
8408;DHT22;4241;48.452;9.216;2022-12-26T05:48:42;11.10;99.90
8408;DHT22;4241;48.452;9.216;2022-12-26T05:56:04;11.20;99.90
8408;DHT22;4241;48.452;9.216;2022-12-26T05:58:31;11.20;99.90
8408;DHT22;4241;48.452;9.216;2022-12-26T06:01:06;11.10;99.90
8408;DHT22;4241;48.452;9.216;2022-12-26T06:03:33;11.20;99.90
8408;DHT22;4241;48.452;9.216;2022-12-26T06:06:02;11.10;99.90
8408;DHT22;4241;48.452;9.216;2022-12-26T06:08:29;11.00;99.90
8408;DHT22;4241;48.452;9.216;2022-12-26T06:13:24;10.90;99.90
8408;DHT22;4241;48.452;9.216;2022-12-26T06:18:17;10.90;99.90
8408;DHT22;4241;48.452;9.216;2022-12-26T06:23:13;10.80;99.90
8408;DHT22;4241;48.452;9.216;2022-12-26T06:28:07;10.80;99.90
8408;DHT22;4241;48.452;9.216;2022-12-26T06:33:00;10.70;99.90
8408;DHT22;4241;48.452;9.216;2022-12-26T06:35:27;10.60;99.90
8408;DHT22;4241;48.452;9.216;2022-12-26T06:40:22;10.60;99.90
8408;DHT22;4241;48.452;9.216;2022-12-26T06:42:49;10.60;99.90
8408;DHT22;4241;48.452;9.216;2022-12-26T06:45:16;10.50;99.90
8408;DHT22;4241;48.452;9.216;2022-12-26T06:47:43;10.60;99.90
8408;DHT22;4241;48.452;9.216;2022-12-26T06:50:11;10.70;99.90
8408;DHT22;4241;48.452;9.216;2022-12-26T06:52:37;10.60;99.90
8408;DHT22;4241;48.452;9.216;2022-12-26T06:55:05;10.50;99.90
8408;DHT22;4241;48.452;9.216;2022-12-26T06:57:33;10.40;99.90
8408;DHT22;4241;48.452;9.216;2022-12-26T07:04:54;10.50;99.90
8408;DHT22;4241;48.452;9.216;2022-12-26T07:09:48;10.70;99.90
8408;DHT22;4241;48.452;9.216;2022-12-26T07:14:46;10.70;99.90
8408;DHT22;4241;48.452;9.216;2022-12-26T07:17:13;10.70;99.90
8408;DHT22;4241;48.452;9.216;2022-12-26T07:19:40;10.70;99.90
8408;DHT22;4241;48.452;9.216;2022-12-26T07:24:34;10.60;99.90
8408;DHT22;4241;48.452;9.216;2022-12-26T07:29:28;10.70;99.90
8408;DHT22;4241;48.452;9.216;2022-12-26T07:31:56;10.60;99.90
8408;DHT22;4241;48.452;9.216;2022-12-26T07:34:23;10.50;99.90
8408;DHT22;4241;48.452;9.216;2022-12-26T07:36:51;10.60;99.90
8408;DHT22;4241;48.452;9.216;2022-12-26T07:49:20;10.50;99.90
8408;DHT22;4241;48.452;9.216;2022-12-26T07:54:14;10.40;99.90
8408;DHT22;4241;48.452;9.216;2022-12-26T07:56:41;10.60;99.90
8408;DHT22;4241;48.452;9.216;2022-12-26T07:59:12;10.50;99.90
8408;DHT22;4241;48.452;9.216;2022-12-26T08:06:35;10.80;99.90
8408;DHT22;4241;48.452;9.216;2022-12-26T08:09:03;10.70;99.90
8408;DHT22;4241;48.452;9.216;2022-12-26T08:11:33;10.80;99.90
8408;DHT22;4241;48.452;9.216;2022-12-26T08:14:00;10.80;99.90
8408;DHT22;4241;48.452;9.216;2022-12-26T08:21:22;11.00;99.90
8408;DHT22;4241;48.452;9.216;2022-12-26T08:23:50;11.10;99.90
8408;DHT22;4241;48.452;9.216;2022-12-26T08:28:48;11.10;99.90
8408;DHT22;4241;48.452;9.216;2022-12-26T08:31:15;11.10;99.90
8408;DHT22;4241;48.452;9.216;2022-12-26T08:33:43;11.10;99.90
8408;DHT22;4241;48.452;9.216;2022-12-26T08:36:11;11.10;99.90
8408;DHT22;4241;48.452;9.216;2022-12-26T08:38:38;11.10;99.90
8408;DHT22;4241;48.452;9.216;2022-12-26T08:41:07;11.00;99.90
8408;DHT22;4241;48.452;9.216;2022-12-26T08:46:03;11.10;99.90
8408;DHT22;4241;48.452;9.216;2022-12-26T08:50:58;11.00;99.90
8408;DHT22;4241;48.452;9.216;2022-12-26T08:53:26;11.10;99.90
8408;DHT22;4241;48.452;9.216;2022-12-26T08:55:54;11.00;99.90
8408;DHT22;4241;48.452;9.216;2022-12-26T08:58:23;11.00;99.90
8408;DHT22;4241;48.452;9.216;2022-12-26T09:05:44;10.80;99.90
8408;DHT22;4241;48.452;9.216;2022-12-26T09:08:12;10.80;99.90
8408;DHT22;4241;48.452;9.216;2022-12-26T09:10:39;10.80;99.90
8408;DHT22;4241;48.452;9.216;2022-12-26T09:15:34;10.70;99.90
8408;DHT22;4241;48.452;9.216;2022-12-26T09:18:01;10.60;99.90
8408;DHT22;4241;48.452;9.216;2022-12-26T09:25:24;10.60;99.90
8408;DHT22;4241;48.452;9.216;2022-12-26T09:27:52;10.70;99.90
8408;DHT22;4241;48.452;9.216;2022-12-26T09:30:20;10.60;99.90
8408;DHT22;4241;48.452;9.216;2022-12-26T09:32:48;10.60;99.90
8408;DHT22;4241;48.452;9.216;2022-12-26T09:35:15;10.70;99.90
8408;DHT22;4241;48.452;9.216;2022-12-26T09:40:19;10.70;99.90
8408;DHT22;4241;48.452;9.216;2022-12-26T09:42:56;10.70;99.90
8408;DHT22;4241;48.452;9.216;2022-12-26T09:45:29;10.70;99.90
8408;DHT22;4241;48.452;9.216;2022-12-26T09:48:05;10.70;99.90
8408;DHT22;4241;48.452;9.216;2022-12-26T09:50:39;10.70;99.90
8408;DHT22;4241;48.452;9.216;2022-12-26T09:53:10;10.90;99.90
8408;DHT22;4241;48.452;9.216;2022-12-26T09:55:40;10.90;99.90
8408;DHT22;4241;48.452;9.216;2022-12-26T09:58:16;10.80;99.90
8408;DHT22;4241;48.452;9.216;2022-12-26T10:00:52;11.10;99.90
8408;DHT22;4241;48.452;9.216;2022-12-26T10:03:22;10.80;99.90
8408;DHT22;4241;48.452;9.216;2022-12-26T10:06:00;10.80;99.90
8408;DHT22;4241;48.452;9.216;2022-12-26T10:08:41;10.70;99.90
8408;DHT22;4241;48.452;9.216;2022-12-26T10:11:15;10.70;99.90
8408;DHT22;4241;48.452;9.216;2022-12-26T10:13:49;10.60;99.90
8408;DHT22;4241;48.452;9.216;2022-12-26T10:16:21;10.70;99.90
8408;DHT22;4241;48.452;9.216;2022-12-26T10:18:58;10.40;99.90
8408;DHT22;4241;48.452;9.216;2022-12-26T10:21:35;10.70;99.90
8408;DHT22;4241;48.452;9.216;2022-12-26T10:24:11;10.70;99.90
8408;DHT22;4241;48.452;9.216;2022-12-26T10:26:42;10.50;99.90
8408;DHT22;4241;48.452;9.216;2022-12-26T10:29:16;10.60;99.90
8408;DHT22;4241;48.452;9.216;2022-12-26T10:31:46;10.70;99.90
8408;DHT22;4241;48.452;9.216;2022-12-26T10:34:18;10.60;99.90
8408;DHT22;4241;48.452;9.216;2022-12-26T10:36:48;10.70;99.90
8408;DHT22;4241;48.452;9.216;2022-12-26T10:39:21;10.60;99.90
8408;DHT22;4241;48.452;9.216;2022-12-26T10:41:51;10.50;99.90
8408;DHT22;4241;48.452;9.216;2022-12-26T10:46:56;10.50;99.90
8408;DHT22;4241;48.452;9.216;2022-12-26T10:49:26;14.30;99.90
8408;DHT22;4241;48.452;9.216;2022-12-26T10:51:55;10.50;99.90
8408;DHT22;4241;48.452;9.216;2022-12-26T10:54:22;10.50;99.90
8408;DHT22;4241;48.452;9.216;2022-12-26T10:56:50;10.50;99.90
8408;DHT22;4241;48.452;9.216;2022-12-26T10:59:21;10.40;99.90
8408;DHT22;4241;48.452;9.216;2022-12-26T11:01:48;10.40;99.90
8408;DHT22;4241;48.452;9.216;2022-12-26T11:04:19;10.40;99.90
8408;DHT22;4241;48.452;9.216;2022-12-26T11:06:49;10.40;99.90
8408;DHT22;4241;48.452;9.216;2022-12-26T11:09:37;10.40;99.90
8408;DHT22;4241;48.452;9.216;2022-12-26T11:12:05;10.20;99.90
8408;DHT22;4241;48.452;9.216;2022-12-26T11:14:35;10.40;99.90
8408;DHT22;4241;48.452;9.216;2022-12-26T11:17:05;10.30;99.90
8408;DHT22;4241;48.452;9.216;2022-12-26T11:19:34;10.40;99.90
8408;DHT22;4241;48.452;9.216;2022-12-26T11:22:21;10.40;99.90
8408;DHT22;4241;48.452;9.216;2022-12-26T11:27:55;10.10;99.90
8408;DHT22;4241;48.452;9.216;2022-12-26T11:30:25;10.10;99.90
8408;DHT22;4241;48.452;9.216;2022-12-26T11:33:06;10.10;99.90
8408;DHT22;4241;48.452;9.216;2022-12-26T11:35:34;10.10;99.90
8408;DHT22;4241;48.452;9.216;2022-12-26T11:38:04;10.10;99.90
8408;DHT22;4241;48.452;9.216;2022-12-26T11:40:35;10.20;99.90
8408;DHT22;4241;48.452;9.216;2022-12-26T11:43:05;10.10;99.90
8408;DHT22;4241;48.452;9.216;2022-12-26T11:45:41;10.20;99.90
8408;DHT22;4241;48.452;9.216;2022-12-26T11:48:18;10.20;99.90
8408;DHT22;4241;48.452;9.216;2022-12-26T11:50:47;10.10;99.90
8408;DHT22;4241;48.452;9.216;2022-12-26T11:53:18;10.10;99.90
8408;DHT22;4241;48.452;9.216;2022-12-26T11:55:57;10.00;99.90
8408;DHT22;4241;48.452;9.216;2022-12-26T11:58:25;10.00;99.90
8408;DHT22;4241;48.452;9.216;2022-12-26T12:01:06;10.00;99.90
8408;DHT22;4241;48.452;9.216;2022-12-26T12:03:36;10.10;99.90
8408;DHT22;4241;48.452;9.216;2022-12-26T12:06:17;9.90;99.90
8408;DHT22;4241;48.452;9.216;2022-12-26T12:08:55;10.10;99.90
8408;DHT22;4241;48.452;9.216;2022-12-26T12:11:30;10.00;99.90
8408;DHT22;4241;48.452;9.216;2022-12-26T12:14:19;10.00;99.90
8408;DHT22;4241;48.452;9.216;2022-12-26T12:16:54;10.00;99.90
8408;DHT22;4241;48.452;9.216;2022-12-26T12:19:34;9.90;99.90
8408;DHT22;4241;48.452;9.216;2022-12-26T12:22:14;9.90;99.90
8408;DHT22;4241;48.452;9.216;2022-12-26T12:24:55;9.80;99.90
8408;DHT22;4241;48.452;9.216;2022-12-26T12:27:28;9.80;99.90
8408;DHT22;4241;48.452;9.216;2022-12-26T12:30:15;10.00;99.90
8408;DHT22;4241;48.452;9.216;2022-12-26T12:32:55;9.90;99.90
8408;DHT22;4241;48.452;9.216;2022-12-26T12:35:33;9.80;99.90
8408;DHT22;4241;48.452;9.216;2022-12-26T12:38:22;9.90;99.90
8408;DHT22;4241;48.452;9.216;2022-12-26T12:41:03;9.90;99.90
8408;DHT22;4241;48.452;9.216;2022-12-26T12:43:36;10.10;99.90
8408;DHT22;4241;48.452;9.216;2022-12-26T12:46:14;9.90;99.90
8408;DHT22;4241;48.452;9.216;2022-12-26T12:48:55;9.90;99.90
8408;DHT22;4241;48.452;9.216;2022-12-26T12:51:32;9.90;99.90
8408;DHT22;4241;48.452;9.216;2022-12-26T12:54:27;9.90;99.90
8408;DHT22;4241;48.452;9.216;2022-12-26T12:57:04;10.10;99.90
8408;DHT22;4241;48.452;9.216;2022-12-26T12:59:42;10.00;99.90
8408;DHT22;4241;48.452;9.216;2022-12-26T13:02:17;10.10;99.90
8408;DHT22;4241;48.452;9.216;2022-12-26T13:04:50;10.10;99.90
8408;DHT22;4241;48.452;9.216;2022-12-26T13:07:21;10.00;99.90
8408;DHT22;4241;48.452;9.216;2022-12-26T13:09:53;10.10;99.90
8408;DHT22;4241;48.452;9.216;2022-12-26T13:12:29;10.20;99.90
8408;DHT22;4241;48.452;9.216;2022-12-26T13:15:01;10.10;99.90
8408;DHT22;4241;48.452;9.216;2022-12-26T13:17:32;10.20;99.90
8408;DHT22;4241;48.452;9.216;2022-12-26T13:20:03;10.10;99.90
8408;DHT22;4241;48.452;9.216;2022-12-26T13:22:35;10.20;99.90
8408;DHT22;4241;48.452;9.216;2022-12-26T13:25:18;10.20;99.90
8408;DHT22;4241;48.452;9.216;2022-12-26T13:27:47;10.30;99.90
8408;DHT22;4241;48.452;9.216;2022-12-26T13:30:16;10.30;99.90
8408;DHT22;4241;48.452;9.216;2022-12-26T13:32:43;10.20;99.90
8408;DHT22;4241;48.452;9.216;2022-12-26T13:38:09;10.20;99.90
8408;DHT22;4241;48.452;9.216;2022-12-26T13:43:16;10.40;99.90
8408;DHT22;4241;48.452;9.216;2022-12-26T13:46:01;10.50;99.90
8408;DHT22;4241;48.452;9.216;2022-12-26T13:51:44;10.40;99.90
8408;DHT22;4241;48.452;9.216;2022-12-26T13:54:13;10.40;99.90
8408;DHT22;4241;48.452;9.216;2022-12-26T13:59:47;10.40;99.90
8408;DHT22;4241;48.452;9.216;2022-12-26T14:02:39;10.40;99.90
8408;DHT22;4241;48.452;9.216;2022-12-26T14:05:16;10.50;99.90
8408;DHT22;4241;48.452;9.216;2022-12-26T14:07:52;10.50;99.90
8408;DHT22;4241;48.452;9.216;2022-12-26T14:10:28;10.50;99.90
8408;DHT22;4241;48.452;9.216;2022-12-26T14:13:03;10.40;99.90
8408;DHT22;4241;48.452;9.216;2022-12-26T14:15:40;10.50;99.90
8408;DHT22;4241;48.452;9.216;2022-12-26T14:18:31;10.50;99.90
8408;DHT22;4241;48.452;9.216;2022-12-26T14:21:21;10.50;99.90
8408;DHT22;4241;48.452;9.216;2022-12-26T14:23:56;10.50;99.90
8408;DHT22;4241;48.452;9.216;2022-12-26T14:26:36;10.50;99.90
8408;DHT22;4241;48.452;9.216;2022-12-26T14:29:14;10.60;99.90
8408;DHT22;4241;48.452;9.216;2022-12-26T14:31:51;10.60;99.90
8408;DHT22;4241;48.452;9.216;2022-12-26T14:34:29;10.60;99.90
8408;DHT22;4241;48.452;9.216;2022-12-26T14:37:08;10.60;99.90
8408;DHT22;4241;48.452;9.216;2022-12-26T14:39:45;10.60;99.90
8408;DHT22;4241;48.452;9.216;2022-12-26T14:42:20;10.60;99.90
8408;DHT22;4241;48.452;9.216;2022-12-26T14:45:35;10.40;99.90
8408;DHT22;4241;48.452;9.216;2022-12-26T14:48:01;10.60;99.90
8408;DHT22;4241;48.452;9.216;2022-12-26T14:50:41;10.60;99.90
8408;DHT22;4241;48.452;9.216;2022-12-26T14:53:33;10.70;99.90
8408;DHT22;4241;48.452;9.216;2022-12-26T14:56:01;10.60;99.90
8408;DHT22;4241;48.452;9.216;2022-12-26T14:58:39;10.60;99.90
8408;DHT22;4241;48.452;9.216;2022-12-26T15:04:55;10.50;99.90
8408;DHT22;4241;48.452;9.216;2022-12-26T15:13:47;10.40;99.90
8408;DHT22;4241;48.452;9.216;2022-12-26T15:16:28;10.40;99.90
8408;DHT22;4241;48.452;9.216;2022-12-26T15:19:41;10.60;99.90
8408;DHT22;4241;48.452;9.216;2022-12-26T15:23:00;10.50;99.90
8408;DHT22;4241;48.452;9.216;2022-12-26T15:29:07;10.40;99.90
8408;DHT22;4241;48.452;9.216;2022-12-26T15:31:49;10.40;99.90
8408;DHT22;4241;48.452;9.216;2022-12-26T15:34:40;10.40;99.90
8408;DHT22;4241;48.452;9.216;2022-12-26T15:37:29;10.50;99.90
8408;DHT22;4241;48.452;9.216;2022-12-26T15:40:04;10.50;99.90
8408;DHT22;4241;48.452;9.216;2022-12-26T15:42:44;10.50;99.90
8408;DHT22;4241;48.452;9.216;2022-12-26T15:45:24;10.70;99.90
8408;DHT22;4241;48.452;9.216;2022-12-26T15:47:59;10.60;99.90
8408;DHT22;4241;48.452;9.216;2022-12-26T15:50:30;10.60;99.90
8408;DHT22;4241;48.452;9.216;2022-12-26T15:53:11;10.50;99.90
8408;DHT22;4241;48.452;9.216;2022-12-26T15:56:01;10.50;99.90
8408;DHT22;4241;48.452;9.216;2022-12-26T15:58:50;10.50;99.90
8408;DHT22;4241;48.452;9.216;2022-12-26T16:01:37;10.50;99.90
8408;DHT22;4241;48.452;9.216;2022-12-26T16:04:09;10.50;99.90
8408;DHT22;4241;48.452;9.216;2022-12-26T16:06:49;10.60;99.90
8408;DHT22;4241;48.452;9.216;2022-12-26T16:09:35;10.60;99.90
8408;DHT22;4241;48.452;9.216;2022-12-26T16:12:20;10.70;99.90
8408;DHT22;4241;48.452;9.216;2022-12-26T16:15:03;10.70;99.90
8408;DHT22;4241;48.452;9.216;2022-12-26T16:17:40;10.70;99.90
8408;DHT22;4241;48.452;9.216;2022-12-26T16:20:18;10.60;99.90
8408;DHT22;4241;48.452;9.216;2022-12-26T16:23:05;10.70;99.90
8408;DHT22;4241;48.452;9.216;2022-12-26T16:25:32;10.60;99.90
8408;DHT22;4241;48.452;9.216;2022-12-26T16:27:59;10.70;99.90
8408;DHT22;4241;48.452;9.216;2022-12-26T16:30:28;10.70;99.90
8408;DHT22;4241;48.452;9.216;2022-12-26T16:32:57;10.70;99.90
8408;DHT22;4241;48.452;9.216;2022-12-26T16:35:26;10.70;99.90
8408;DHT22;4241;48.452;9.216;2022-12-26T16:37:58;10.70;99.90
8408;DHT22;4241;48.452;9.216;2022-12-26T16:40:28;10.70;99.90
8408;DHT22;4241;48.452;9.216;2022-12-26T16:43:00;10.70;99.90
8408;DHT22;4241;48.452;9.216;2022-12-26T16:45:30;10.70;99.90
8408;DHT22;4241;48.452;9.216;2022-12-26T16:47:57;10.70;99.90
8408;DHT22;4241;48.452;9.216;2022-12-26T16:50:26;10.70;99.90
8408;DHT22;4241;48.452;9.216;2022-12-26T16:53:07;10.70;99.90
8408;DHT22;4241;48.452;9.216;2022-12-26T16:55:38;10.60;99.90
8408;DHT22;4241;48.452;9.216;2022-12-26T16:58:19;10.70;99.90
8408;DHT22;4241;48.452;9.216;2022-12-26T17:00:52;10.70;99.90
8408;DHT22;4241;48.452;9.216;2022-12-26T17:03:37;10.70;99.90
8408;DHT22;4241;48.452;9.216;2022-12-26T17:06:11;10.70;99.90
8408;DHT22;4241;48.452;9.216;2022-12-26T17:08:42;10.60;99.90
8408;DHT22;4241;48.452;9.216;2022-12-26T17:11:11;10.60;99.90
8408;DHT22;4241;48.452;9.216;2022-12-26T17:13:40;10.60;99.90
8408;DHT22;4241;48.452;9.216;2022-12-26T17:18:46;10.60;99.90
8408;DHT22;4241;48.452;9.216;2022-12-26T17:21:22;10.70;99.90
8408;DHT22;4241;48.452;9.216;2022-12-26T17:24:18;10.50;99.90
8408;DHT22;4241;48.452;9.216;2022-12-26T17:26:51;10.60;99.90
8408;DHT22;4241;48.452;9.216;2022-12-26T17:29:38;10.60;99.90
8408;DHT22;4241;48.452;9.216;2022-12-26T17:32:13;10.70;99.90
8408;DHT22;4241;48.452;9.216;2022-12-26T17:34:41;10.60;99.90
8408;DHT22;4241;48.452;9.216;2022-12-26T17:37:17;10.70;99.90
8408;DHT22;4241;48.452;9.216;2022-12-26T17:39:50;10.80;99.90
8408;DHT22;4241;48.452;9.216;2022-12-26T17:44:46;10.70;99.90
8408;DHT22;4241;48.452;9.216;2022-12-26T17:47:19;10.90;99.90
8408;DHT22;4241;48.452;9.216;2022-12-26T17:49:47;10.90;99.90
8408;DHT22;4241;48.452;9.216;2022-12-26T17:52:16;10.90;99.90
8408;DHT22;4241;48.452;9.216;2022-12-26T17:54:45;10.90;99.90
8408;DHT22;4241;48.452;9.216;2022-12-26T17:57:18;10.90;99.90
8408;DHT22;4241;48.452;9.216;2022-12-26T17:59:47;10.90;99.90
8408;DHT22;4241;48.452;9.216;2022-12-26T18:07:11;11.00;99.90
8408;DHT22;4241;48.452;9.216;2022-12-26T18:09:40;10.90;99.90
8408;DHT22;4241;48.452;9.216;2022-12-26T18:12:09;11.00;99.90
8408;DHT22;4241;48.452;9.216;2022-12-26T18:14:36;11.00;99.90
8408;DHT22;4241;48.452;9.216;2022-12-26T18:17:04;11.00;99.90
8408;DHT22;4241;48.452;9.216;2022-12-26T18:19:31;11.00;99.90
8408;DHT22;4241;48.452;9.216;2022-12-26T18:21:59;11.10;99.90
8408;DHT22;4241;48.452;9.216;2022-12-26T18:26:53;11.00;99.90
8408;DHT22;4241;48.452;9.216;2022-12-26T18:31:47;10.90;99.90
8408;DHT22;4241;48.452;9.216;2022-12-26T18:34:15;11.00;99.90
8408;DHT22;4241;48.452;9.216;2022-12-26T18:39:13;10.90;99.90
8408;DHT22;4241;48.452;9.216;2022-12-26T18:41:40;11.10;99.90
8408;DHT22;4241;48.452;9.216;2022-12-26T18:49:02;10.90;99.90
8408;DHT22;4241;48.452;9.216;2022-12-26T18:51:30;10.80;99.90
8408;DHT22;4241;48.452;9.216;2022-12-26T18:53:57;10.20;99.90
8408;DHT22;4241;48.452;9.216;2022-12-26T18:56:24;9.80;99.90
8408;DHT22;4241;48.452;9.216;2022-12-26T18:58:50;9.10;99.90
8408;DHT22;4241;48.452;9.216;2022-12-26T19:01:18;8.40;99.90
8408;DHT22;4241;48.452;9.216;2022-12-26T19:06:14;7.90;99.90
8408;DHT22;4241;48.452;9.216;2022-12-26T19:08:43;7.70;99.90
8408;DHT22;4241;48.452;9.216;2022-12-26T19:11:12;7.60;99.90
8408;DHT22;4241;48.452;9.216;2022-12-26T19:13:39;7.60;99.90
8408;DHT22;4241;48.452;9.216;2022-12-26T19:16:06;7.50;99.90
8408;DHT22;4241;48.452;9.216;2022-12-26T19:18:33;7.40;99.90
8408;DHT22;4241;48.452;9.216;2022-12-26T19:21:00;7.40;99.90
8408;DHT22;4241;48.452;9.216;2022-12-26T19:25:55;7.40;99.90
8408;DHT22;4241;48.452;9.216;2022-12-26T19:28:22;7.50;99.90
8408;DHT22;4241;48.452;9.216;2022-12-26T19:30:49;7.50;99.90
8408;DHT22;4241;48.452;9.216;2022-12-26T19:33:15;7.40;99.90
8408;DHT22;4241;48.452;9.216;2022-12-26T19:35:42;7.40;99.90
8408;DHT22;4241;48.452;9.216;2022-12-26T19:40:38;7.40;99.90
8408;DHT22;4241;48.452;9.216;2022-12-26T19:43:06;7.50;99.90